Terminal Aerodrome Forecast
Issued by NWS

Home | Current Version | Previous Version | Text Only | Print | Product List | Glossary On
Versions: 1 2 3 4 5 6 7 8 9 10 11 12 13 14 15
000
FTUS42 KTAE 232332
TAFDHN
TAF
KDHN 232332Z 2400/2424 21005KT P6SM VCSH SCT040
     FM240600 VRB05KT 3SM BR BKN008 OVC030
     FM241400 26007KT P6SM SCT020 SCT050
     FM241700 22008KT P6SM VCTS BKN040CB=

USA.gov is the U.S. government's official web portal to all federal, state and local government web resources and services.